sensor_id;sensor_type;location;lat;lon;timestamp;P1;durP1;ratioP1;P2;durP2;ratioP2
12888;SDS011;56848;49.896;11.424;2023-05-16T04:01:54;14.13;;;9.60;;
12888;SDS011;56848;49.896;11.424;2023-05-16T04:04:20;12.83;;;9.40;;
12888;SDS011;56848;49.896;11.424;2023-05-16T04:06:46;13.57;;;10.00;;
12888;SDS011;56848;49.896;11.424;2023-05-16T04:09:12;14.17;;;10.50;;
12888;SDS011;56848;49.896;11.424;2023-05-16T04:11:38;15.43;;;9.90;;
12888;SDS011;56848;49.896;11.424;2023-05-16T04:14:04;13.50;;;9.20;;
12888;SDS011;56848;49.896;11.424;2023-05-16T04:16:30;17.20;;;10.67;;
12888;SDS011;56848;49.896;11.424;2023-05-16T04:18:56;13.63;;;9.50;;
12888;SDS011;56848;49.896;11.424;2023-05-16T04:21:22;14.87;;;8.33;;
12888;SDS011;56848;49.896;11.424;2023-05-16T04:23:48;11.67;;;8.33;;
12888;SDS011;56848;49.896;11.424;2023-05-16T04:26:14;11.47;;;8.73;;
12888;SDS011;56848;49.896;11.424;2023-05-16T04:28:39;9.97;;;8.10;;
12888;SDS011;56848;49.896;11.424;2023-05-16T04:31:05;17.73;;;8.07;;
12888;SDS011;56848;49.896;11.424;2023-05-16T04:33:32;13.13;;;7.90;;
12888;SDS011;56848;49.896;11.424;2023-05-16T04:35:58;11.60;;;8.80;;
12888;SDS011;56848;49.896;11.424;2023-05-16T04:38:24;12.53;;;8.73;;
12888;SDS011;56848;49.896;11.424;2023-05-16T04:40:50;12.83;;;8.53;;
12888;SDS011;56848;49.896;11.424;2023-05-16T04:43:17;12.83;;;8.00;;
12888;SDS011;56848;49.896;11.424;2023-05-16T04:45:43;8.50;;;6.80;;
12888;SDS011;56848;49.896;11.424;2023-05-16T04:48:09;9.67;;;7.23;;
12888;SDS011;56848;49.896;11.424;2023-05-16T04:50:36;10.23;;;8.40;;
12888;SDS011;56848;49.896;11.424;2023-05-16T04:53:02;10.30;;;8.57;;
12888;SDS011;56848;49.896;11.424;2023-05-16T04:55:28;13.83;;;8.33;;
12888;SDS011;56848;49.896;11.424;2023-05-16T04:57:54;15.43;;;9.30;;
12888;SDS011;56848;49.896;11.424;2023-05-16T05:00:20;12.77;;;9.17;;
12888;SDS011;56848;49.896;11.424;2023-05-16T05:02:46;16.97;;;9.50;;
12888;SDS011;56848;49.896;11.424;2023-05-16T05:05:12;12.43;;;8.73;;
12888;SDS011;56848;49.896;11.424;2023-05-16T05:07:38;10.90;;;9.00;;
12888;SDS011;56848;49.896;11.424;2023-05-16T05:10:04;11.60;;;8.60;;
12888;SDS011;56848;49.896;11.424;2023-05-16T05:12:31;14.53;;;9.90;;
12888;SDS011;56848;49.896;11.424;2023-05-16T05:14:57;13.93;;;10.20;;
12888;SDS011;56848;49.896;11.424;2023-05-16T05:17:23;14.57;;;9.47;;
12888;SDS011;56848;49.896;11.424;2023-05-16T05:19:49;12.13;;;9.00;;
12888;SDS011;56848;49.896;11.424;2023-05-16T05:22:15;13.33;;;9.80;;
12888;SDS011;56848;49.896;11.424;2023-05-16T05:24:41;17.10;;;10.50;;
12888;SDS011;56848;49.896;11.424;2023-05-16T05:27:07;13.37;;;10.57;;
12888;SDS011;56848;49.896;11.424;2023-05-16T05:29:33;14.90;;;9.77;;
12888;SDS011;56848;49.896;11.424;2023-05-16T05:31:59;11.40;;;9.13;;
12888;SDS011;56848;49.896;11.424;2023-05-16T05:34:25;12.90;;;9.60;;
12888;SDS011;56848;49.896;11.424;2023-05-16T05:36:51;12.47;;;8.90;;
12888;SDS011;56848;49.896;11.424;2023-05-16T05:39:17;11.50;;;9.40;;
12888;SDS011;56848;49.896;11.424;2023-05-16T05:41:43;14.10;;;9.50;;
12888;SDS011;56848;49.896;11.424;2023-05-16T05:44:09;11.63;;;9.00;;
12888;SDS011;56848;49.896;11.424;2023-05-16T05:46:35;11.50;;;8.67;;
12888;SDS011;56848;49.896;11.424;2023-05-16T05:49:02;13.20;;;9.57;;
12888;SDS011;56848;49.896;11.424;2023-05-16T05:51:28;16.60;;;9.37;;
12888;SDS011;56848;49.896;11.424;2023-05-16T05:53:54;11.27;;;9.27;;
12888;SDS011;56848;49.896;11.424;2023-05-16T05:56:20;11.23;;;8.40;;
12888;SDS011;56848;49.896;11.424;2023-05-16T05:58:48;14.00;;;9.87;;
12888;SDS011;56848;49.896;11.424;2023-05-16T06:01:14;12.47;;;8.90;;
12888;SDS011;56848;49.896;11.424;2023-05-16T06:03:41;15.33;;;8.90;;
12888;SDS011;56848;49.896;11.424;2023-05-16T06:06:07;11.90;;;8.93;;
12888;SDS011;56848;49.896;11.424;2023-05-16T06:08:33;13.47;;;9.67;;
12888;SDS011;56848;49.896;11.424;2023-05-16T06:10:59;16.60;;;9.83;;
12888;SDS011;56848;49.896;11.424;2023-05-16T06:13:25;17.53;;;10.53;;
12888;SDS011;56848;49.896;11.424;2023-05-16T06:15:52;17.63;;;10.33;;
12888;SDS011;56848;49.896;11.424;2023-05-16T06:18:18;15.10;;;10.67;;
12888;SDS011;56848;49.896;11.424;2023-05-16T06:20:44;12.23;;;9.73;;
12888;SDS011;56848;49.896;11.424;2023-05-16T06:23:10;15.27;;;10.50;;
12888;SDS011;56848;49.896;11.424;2023-05-16T06:25:36;10.20;;;8.87;;
12888;SDS011;56848;49.896;11.424;2023-05-16T06:28:02;11.93;;;9.07;;
12888;SDS011;56848;49.896;11.424;2023-05-16T06:30:28;14.27;;;10.20;;
12888;SDS011;56848;49.896;11.424;2023-05-16T06:32:54;17.23;;;9.53;;
12888;SDS011;56848;49.896;11.424;2023-05-16T06:35:20;15.10;;;9.60;;
12888;SDS011;56848;49.896;11.424;2023-05-16T06:37:47;15.20;;;10.10;;
12888;SDS011;56848;49.896;11.424;2023-05-16T06:40:13;17.20;;;10.70;;
12888;SDS011;56848;49.896;11.424;2023-05-16T06:42:39;14.43;;;9.93;;
12888;SDS011;56848;49.896;11.424;2023-05-16T06:45:05;15.77;;;10.13;;
12888;SDS011;56848;49.896;11.424;2023-05-16T06:47:31;11.13;;;9.50;;
12888;SDS011;56848;49.896;11.424;2023-05-16T06:49:57;12.33;;;10.97;;
12888;SDS011;56848;49.896;11.424;2023-05-16T06:52:23;12.40;;;10.20;;
12888;SDS011;56848;49.896;11.424;2023-05-16T06:54:49;16.33;;;11.47;;
12888;SDS011;56848;49.896;11.424;2023-05-16T06:57:16;18.80;;;12.00;;
12888;SDS011;56848;49.896;11.424;2023-05-16T06:59:42;16.07;;;11.20;;
12888;SDS011;56848;49.896;11.424;2023-05-16T07:02:08;19.50;;;12.87;;
12888;SDS011;56848;49.896;11.424;2023-05-16T07:04:34;16.67;;;12.10;;
12888;SDS011;56848;49.896;11.424;2023-05-16T07:07:01;15.90;;;11.80;;
12888;SDS011;56848;49.896;11.424;2023-05-16T07:09:28;20.50;;;12.47;;
12888;SDS011;56848;49.896;11.424;2023-05-16T07:11:54;17.37;;;11.17;;
12888;SDS011;56848;49.896;11.424;2023-05-16T07:14:19;13.90;;;11.20;;
12888;SDS011;56848;49.896;11.424;2023-05-16T07:16:45;15.60;;;10.27;;
12888;SDS011;56848;49.896;11.424;2023-05-16T07:19:11;12.70;;;10.67;;
12888;SDS011;56848;49.896;11.424;2023-05-16T07:21:37;14.80;;;11.03;;
12888;SDS011;56848;49.896;11.424;2023-05-16T07:24:04;12.70;;;9.43;;
12888;SDS011;56848;49.896;11.424;2023-05-16T07:26:30;14.10;;;9.80;;
12888;SDS011;56848;49.896;11.424;2023-05-16T07:28:56;16.57;;;11.30;;
12888;SDS011;56848;49.896;11.424;2023-05-16T07:31:22;15.43;;;10.33;;
12888;SDS011;56848;49.896;11.424;2023-05-16T07:33:48;13.37;;;10.80;;
12888;SDS011;56848;49.896;11.424;2023-05-16T07:36:14;15.70;;;9.20;;
12888;SDS011;56848;49.896;11.424;2023-05-16T07:38:40;16.87;;;10.30;;
12888;SDS011;56848;49.896;11.424;2023-05-16T07:41:06;14.70;;;9.10;;
12888;SDS011;56848;49.896;11.424;2023-05-16T07:43:33;16.77;;;9.97;;
12888;SDS011;56848;49.896;11.424;2023-05-16T07:45:59;11.77;;;9.40;;
12888;SDS011;56848;49.896;11.424;2023-05-16T07:48:25;12.13;;;8.53;;
12888;SDS011;56848;49.896;11.424;2023-05-16T07:50:51;11.10;;;8.50;;
12888;SDS011;56848;49.896;11.424;2023-05-16T07:53:17;12.17;;;8.87;;
12888;SDS011;56848;49.896;11.424;2023-05-16T07:55:43;10.47;;;8.27;;
12888;SDS011;56848;49.896;11.424;2023-05-16T07:58:09;11.03;;;8.30;;
12888;SDS011;56848;49.896;11.424;2023-05-16T08:00:35;13.03;;;8.83;;
12888;SDS011;56848;49.896;11.424;2023-05-16T08:03:01;11.10;;;8.10;;
12888;SDS011;56848;49.896;11.424;2023-05-16T08:05:27;12.03;;;8.37;;
12888;SDS011;56848;49.896;11.424;2023-05-16T08:07:53;11.27;;;8.13;;
12888;SDS011;56848;49.896;11.424;2023-05-16T08:10:20;13.00;;;8.23;;
12888;SDS011;56848;49.896;11.424;2023-05-16T08:12:47;10.97;;;8.63;;
12888;SDS011;56848;49.896;11.424;2023-05-16T08:15:14;10.80;;;8.10;;
12888;SDS011;56848;49.896;11.424;2023-05-16T08:17:40;10.07;;;7.70;;
12888;SDS011;56848;49.896;11.424;2023-05-16T08:20:06;9.80;;;7.70;;
12888;SDS011;56848;49.896;11.424;2023-05-16T08:22:32;10.07;;;7.37;;
12888;SDS011;56848;49.896;11.424;2023-05-16T08:24:58;12.73;;;8.27;;
12888;SDS011;56848;49.896;11.424;2023-05-16T08:27:27;10.37;;;8.50;;
12888;SDS011;56848;49.896;11.424;2023-05-16T08:29:53;9.77;;;7.97;;
12888;SDS011;56848;49.896;11.424;2023-05-16T08:32:20;14.93;;;8.90;;
12888;SDS011;56848;49.896;11.424;2023-05-16T08:34:46;10.83;;;8.00;;
12888;SDS011;56848;49.896;11.424;2023-05-16T08:37:12;15.30;;;8.00;;
12888;SDS011;56848;49.896;11.424;2023-05-16T08:39:38;14.83;;;8.10;;
12888;SDS011;56848;49.896;11.424;2023-05-16T08:42:04;10.10;;;7.37;;
12888;SDS011;56848;49.896;11.424;2023-05-16T08:44:30;9.63;;;7.80;;
12888;SDS011;56848;49.896;11.424;2023-05-16T08:46:56;10.63;;;8.00;;
12888;SDS011;56848;49.896;11.424;2023-05-16T08:49:27;8.07;;;6.30;;
12888;SDS011;56848;49.896;11.424;2023-05-16T08:51:55;11.33;;;7.80;;
12888;SDS011;56848;49.896;11.424;2023-05-16T08:54:24;12.97;;;7.50;;
12888;SDS011;56848;49.896;11.424;2023-05-16T08:56:51;10.97;;;7.43;;
12888;SDS011;56848;49.896;11.424;2023-05-16T08:59:17;10.00;;;7.70;;
12888;SDS011;56848;49.896;11.424;2023-05-16T09:01:43;9.00;;;6.83;;
12888;SDS011;56848;49.896;11.424;2023-05-16T09:04:09;8.40;;;6.87;;
12888;SDS011;56848;49.896;11.424;2023-05-16T09:06:35;9.17;;;6.50;;
12888;SDS011;56848;49.896;11.424;2023-05-16T09:09:01;15.43;;;7.37;;
12888;SDS011;56848;49.896;11.424;2023-05-16T09:11:28;6.50;;;5.70;;
12888;SDS011;56848;49.896;11.424;2023-05-16T09:13:54;9.20;;;5.53;;
12888;SDS011;56848;49.896;11.424;2023-05-16T09:16:20;15.23;;;5.77;;
12888;SDS011;56848;49.896;11.424;2023-05-16T09:18:54;7.57;;;5.70;;
12888;SDS011;56848;49.896;11.424;2023-05-16T09:21:21;6.40;;;5.40;;
12888;SDS011;56848;49.896;11.424;2023-05-16T09:23:47;6.87;;;5.63;;
12888;SDS011;56848;49.896;11.424;2023-05-16T09:26:15;9.73;;;5.83;;
12888;SDS011;56848;49.896;11.424;2023-05-16T09:28:41;8.37;;;6.27;;
12888;SDS011;56848;49.896;11.424;2023-05-16T09:31:24;7.77;;;5.90;;
12888;SDS011;56848;49.896;11.424;2023-05-16T09:33:54;6.90;;;5.57;;
12888;SDS011;56848;49.896;11.424;2023-05-16T09:36:21;5.70;;;5.13;;
12888;SDS011;56848;49.896;11.424;2023-05-16T09:38:48;6.27;;;4.87;;
12888;SDS011;56848;49.896;11.424;2023-05-16T09:41:14;8.00;;;5.10;;
12888;SDS011;56848;49.896;11.424;2023-05-16T09:43:41;9.40;;;5.80;;
12888;SDS011;56848;49.896;11.424;2023-05-16T09:46:07;5.90;;;4.50;;
12888;SDS011;56848;49.896;11.424;2023-05-16T09:48:33;7.73;;;5.70;;
12888;SDS011;56848;49.896;11.424;2023-05-16T09:51:00;5.30;;;4.80;;
12888;SDS011;56848;49.896;11.424;2023-05-16T09:53:29;5.37;;;4.60;;
12888;SDS011;56848;49.896;11.424;2023-05-16T09:56:03;6.53;;;4.90;;
12888;SDS011;56848;49.896;11.424;2023-05-16T09:58:30;6.13;;;4.83;;
12888;SDS011;56848;49.896;11.424;2023-05-16T10:00:56;5.40;;;4.10;;
12888;SDS011;56848;49.896;11.424;2023-05-16T10:03:23;4.87;;;4.40;;
12888;SDS011;56848;49.896;11.424;2023-05-16T10:05:50;10.87;;;4.60;;
12888;SDS011;56848;49.896;11.424;2023-05-16T10:08:17;5.70;;;4.33;;
12888;SDS011;56848;49.896;11.424;2023-05-16T10:10:45;6.23;;;4.50;;
12888;SDS011;56848;49.896;11.424;2023-05-16T10:13:11;4.87;;;4.20;;
12888;SDS011;56848;49.896;11.424;2023-05-16T10:15:37;4.83;;;4.13;;
12888;SDS011;56848;49.896;11.424;2023-05-16T10:18:04;3.67;;;2.97;;
12888;SDS011;56848;49.896;11.424;2023-05-16T10:20:35;5.03;;;3.37;;
12888;SDS011;56848;49.896;11.424;2023-05-16T10:23:02;3.60;;;3.10;;
12888;SDS011;56848;49.896;11.424;2023-05-16T10:25:31;5.57;;;3.40;;
12888;SDS011;56848;49.896;11.424;2023-05-16T10:27:58;3.50;;;3.20;;
12888;SDS011;56848;49.896;11.424;2023-05-16T10:30:24;4.83;;;2.70;;
12888;SDS011;56848;49.896;11.424;2023-05-16T10:32:51;4.00;;;3.07;;
12888;SDS011;56848;49.896;11.424;2023-05-16T10:35:18;5.60;;;3.37;;
12888;SDS011;56848;49.896;11.424;2023-05-16T10:37:45;3.93;;;3.50;;
12888;SDS011;56848;49.896;11.424;2023-05-16T10:40:12;3.43;;;3.13;;
12888;SDS011;56848;49.896;11.424;2023-05-16T10:42:38;6.33;;;3.60;;
12888;SDS011;56848;49.896;11.424;2023-05-16T10:45:08;4.30;;;3.80;;
12888;SDS011;56848;49.896;11.424;2023-05-16T10:47:34;5.73;;;3.80;;
12888;SDS011;56848;49.896;11.424;2023-05-16T10:50:00;5.27;;;3.80;;
12888;SDS011;56848;49.896;11.424;2023-05-16T10:52:32;3.83;;;3.40;;
12888;SDS011;56848;49.896;11.424;2023-05-16T10:54:58;7.00;;;4.47;;
12888;SDS011;56848;49.896;11.424;2023-05-16T10:57:26;5.00;;;3.60;;
12888;SDS011;56848;49.896;11.424;2023-05-16T10:59:52;4.73;;;4.27;;
12888;SDS011;56848;49.896;11.424;2023-05-16T11:04:50;4.70;;;3.93;;
12888;SDS011;56848;49.896;11.424;2023-05-16T11:07:17;5.57;;;4.40;;
12888;SDS011;56848;49.896;11.424;2023-05-16T11:09:44;4.00;;;3.53;;
12888;SDS011;56848;49.896;11.424;2023-05-16T11:12:11;6.10;;;4.20;;
12888;SDS011;56848;49.896;11.424;2023-05-16T11:14:38;6.83;;;4.13;;
12888;SDS011;56848;49.896;11.424;2023-05-16T11:19:33;4.70;;;4.10;;
12888;SDS011;56848;49.896;11.424;2023-05-16T11:24:49;7.40;;;4.80;;
12888;SDS011;56848;49.896;11.424;2023-05-16T11:27:34;4.07;;;3.67;;
12888;SDS011;56848;49.896;11.424;2023-05-16T11:32:30;6.10;;;4.97;;
12888;SDS011;56848;49.896;11.424;2023-05-16T11:34:57;6.30;;;4.27;;
12888;SDS011;56848;49.896;11.424;2023-05-16T11:37:24;6.80;;;4.30;;
12888;SDS011;56848;49.896;11.424;2023-05-16T11:39:50;5.73;;;4.47;;
12888;SDS011;56848;49.896;11.424;2023-05-16T11:42:16;6.40;;;4.40;;
12888;SDS011;56848;49.896;11.424;2023-05-16T11:44:42;6.37;;;4.43;;
12888;SDS011;56848;49.896;11.424;2023-05-16T11:47:08;4.90;;;4.10;;
12888;SDS011;56848;49.896;11.424;2023-05-16T11:49:34;5.57;;;4.10;;
12888;SDS011;56848;49.896;11.424;2023-05-16T11:52:01;7.30;;;4.40;;
12888;SDS011;56848;49.896;11.424;2023-05-16T11:54:27;4.70;;;4.20;;
12888;SDS011;56848;49.896;11.424;2023-05-16T11:56:53;5.07;;;3.93;;
12888;SDS011;56848;49.896;11.424;2023-05-16T11:59:19;8.00;;;4.57;;
12888;SDS011;56848;49.896;11.424;2023-05-16T12:01:45;5.97;;;4.53;;
12888;SDS011;56848;49.896;11.424;2023-05-16T12:04:15;5.00;;;4.37;;
12888;SDS011;56848;49.896;11.424;2023-05-16T12:06:41;5.20;;;4.20;;
12888;SDS011;56848;49.896;11.424;2023-05-16T12:09:11;8.80;;;4.33;;
12888;SDS011;56848;49.896;11.424;2023-05-16T12:11:41;6.33;;;4.23;;
12888;SDS011;56848;49.896;11.424;2023-05-16T12:14:08;9.10;;;3.90;;
12888;SDS011;56848;49.896;11.424;2023-05-16T12:16:35;4.13;;;3.73;;
12888;SDS011;56848;49.896;11.424;2023-05-16T12:19:02;5.70;;;4.30;;
12888;SDS011;56848;49.896;11.424;2023-05-16T12:21:30;5.90;;;3.53;;
12888;SDS011;56848;49.896;11.424;2023-05-16T12:23:56;5.63;;;4.10;;
12888;SDS011;56848;49.896;11.424;2023-05-16T12:26:24;4.30;;;3.70;;
12888;SDS011;56848;49.896;11.424;2023-05-16T12:28:52;4.33;;;3.53;;
12888;SDS011;56848;49.896;11.424;2023-05-16T12:31:21;5.60;;;3.70;;
12888;SDS011;56848;49.896;11.424;2023-05-16T12:33:47;4.60;;;3.77;;
12888;SDS011;56848;49.896;11.424;2023-05-16T12:36:13;3.87;;;3.47;;
12888;SDS011;56848;49.896;11.424;2023-05-16T12:38:40;5.30;;;3.90;;
12888;SDS011;56848;49.896;11.424;2023-05-16T12:41:06;3.50;;;3.10;;
12888;SDS011;56848;49.896;11.424;2023-05-16T12:43:32;5.40;;;3.83;;
12888;SDS011;56848;49.896;11.424;2023-05-16T12:45:58;5.07;;;3.80;;
12888;SDS011;56848;49.896;11.424;2023-05-16T12:48:31;4.90;;;3.57;;
12888;SDS011;56848;49.896;11.424;2023-05-16T12:51:11;4.23;;;3.13;;
12888;SDS011;56848;49.896;11.424;2023-05-16T12:53:41;4.00;;;3.40;;
12888;SDS011;56848;49.896;11.424;2023-05-16T12:56:08;5.73;;;3.20;;
12888;SDS011;56848;49.896;11.424;2023-05-16T12:58:35;4.30;;;3.00;;
12888;SDS011;56848;49.896;11.424;2023-05-16T13:01:01;4.40;;;3.33;;
12888;SDS011;56848;49.896;11.424;2023-05-16T13:03:27;3.70;;;3.30;;
12888;SDS011;56848;49.896;11.424;2023-05-16T13:05:54;5.67;;;3.80;;
12888;SDS011;56848;49.896;11.424;2023-05-16T13:08:20;6.13;;;3.93;;
12888;SDS011;56848;49.896;11.424;2023-05-16T13:10:46;6.47;;;3.57;;
12888;SDS011;56848;49.896;11.424;2023-05-16T13:13:12;3.97;;;3.43;;
12888;SDS011;56848;49.896;11.424;2023-05-16T13:15:39;3.30;;;2.90;;
12888;SDS011;56848;49.896;11.424;2023-05-16T13:18:06;3.33;;;3.03;;
12888;SDS011;56848;49.896;11.424;2023-05-16T13:20:32;3.97;;;3.17;;
12888;SDS011;56848;49.896;11.424;2023-05-16T13:22:59;3.40;;;3.10;;
12888;SDS011;56848;49.896;11.424;2023-05-16T13:25:24;5.07;;;2.90;;
12888;SDS011;56848;49.896;11.424;2023-05-16T13:27:50;3.77;;;3.10;;
12888;SDS011;56848;49.896;11.424;2023-05-16T13:30:16;4.10;;;3.70;;
12888;SDS011;56848;49.896;11.424;2023-05-16T13:32:42;4.17;;;3.17;;
12888;SDS011;56848;49.896;11.424;2023-05-16T13:35:08;5.77;;;3.37;;
12888;SDS011;56848;49.896;11.424;2023-05-16T13:37:35;3.33;;;2.77;;
12888;SDS011;56848;49.896;11.424;2023-05-16T13:40:01;3.07;;;2.77;;
12888;SDS011;56848;49.896;11.424;2023-05-16T13:42:28;5.03;;;3.10;;
12888;SDS011;56848;49.896;11.424;2023-05-16T13:44:54;4.93;;;3.40;;
12888;SDS011;56848;49.896;11.424;2023-05-16T13:47:20;5.30;;;3.57;;
12888;SDS011;56848;49.896;11.424;2023-05-16T13:49:46;5.00;;;3.90;;
12888;SDS011;56848;49.896;11.424;2023-05-16T13:52:12;6.27;;;3.73;;
12888;SDS011;56848;49.896;11.424;2023-05-16T13:54:38;6.73;;;4.37;;
12888;SDS011;56848;49.896;11.424;2023-05-16T13:57:05;6.83;;;4.20;;
12888;SDS011;56848;49.896;11.424;2023-05-16T13:59:31;6.37;;;4.60;;
12888;SDS011;56848;49.896;11.424;2023-05-16T14:01:57;6.60;;;4.30;;
12888;SDS011;56848;49.896;11.424;2023-05-16T14:04:23;6.20;;;3.70;;
12888;SDS011;56848;49.896;11.424;2023-05-16T14:06:50;4.83;;;3.30;;
12888;SDS011;56848;49.896;11.424;2023-05-16T14:09:16;4.50;;;3.40;;
12888;SDS011;56848;49.896;11.424;2023-05-16T14:11:42;5.70;;;3.47;;
12888;SDS011;56848;49.896;11.424;2023-05-16T14:14:08;4.43;;;3.10;;
12888;SDS011;56848;49.896;11.424;2023-05-16T14:16:34;3.63;;;3.00;;
12888;SDS011;56848;49.896;11.424;2023-05-16T14:19:01;3.27;;;2.87;;
12888;SDS011;56848;49.896;11.424;2023-05-16T14:21:27;7.80;;;3.30;;
12888;SDS011;56848;49.896;11.424;2023-05-16T14:23:53;3.37;;;3.07;;
12888;SDS011;56848;49.896;11.424;2023-05-16T14:26:19;7.13;;;3.03;;
12888;SDS011;56848;49.896;11.424;2023-05-16T14:28:49;7.90;;;3.20;;
12888;SDS011;56848;49.896;11.424;2023-05-16T14:31:15;3.67;;;3.20;;
12888;SDS011;56848;49.896;11.424;2023-05-16T14:33:41;7.73;;;2.93;;
12888;SDS011;56848;49.896;11.424;2023-05-16T14:36:08;4.73;;;3.07;;
12888;SDS011;56848;49.896;11.424;2023-05-16T14:38:34;4.97;;;3.00;;
12888;SDS011;56848;49.896;11.424;2023-05-16T14:41:00;2.90;;;2.60;;
12888;SDS011;56848;49.896;11.424;2023-05-16T14:43:26;7.07;;;3.00;;
12888;SDS011;56848;49.896;11.424;2023-05-16T14:45:52;5.20;;;2.70;;
12888;SDS011;56848;49.896;11.424;2023-05-16T14:48:18;3.77;;;2.73;;
12888;SDS011;56848;49.896;11.424;2023-05-16T14:50:44;4.60;;;3.00;;
12888;SDS011;56848;49.896;11.424;2023-05-16T14:53:10;5.90;;;2.90;;
12888;SDS011;56848;49.896;11.424;2023-05-16T14:55:36;3.80;;;2.57;;
12888;SDS011;56848;49.896;11.424;2023-05-16T14:58:02;2.67;;;2.43;;
12888;SDS011;56848;49.896;11.424;2023-05-16T15:00:28;3.30;;;2.97;;
12888;SDS011;56848;49.896;11.424;2023-05-16T15:02:55;3.93;;;2.63;;
12888;SDS011;56848;49.896;11.424;2023-05-16T15:05:21;3.23;;;2.83;;
12888;SDS011;56848;49.896;11.424;2023-05-16T15:07:49;4.53;;;3.20;;
12888;SDS011;56848;49.896;11.424;2023-05-16T15:10:15;9.00;;;3.47;;
12888;SDS011;56848;49.896;11.424;2023-05-16T15:12:41;5.37;;;2.70;;
12888;SDS011;56848;49.896;11.424;2023-05-16T15:15:08;5.43;;;3.10;;
12888;SDS011;56848;49.896;11.424;2023-05-16T15:17:38;4.33;;;3.23;;
12888;SDS011;56848;49.896;11.424;2023-05-16T15:20:08;3.73;;;3.10;;
12888;SDS011;56848;49.896;11.424;2023-05-16T15:22:38;3.53;;;2.90;;
12888;SDS011;56848;49.896;11.424;2023-05-16T15:25:05;6.70;;;2.90;;
12888;SDS011;56848;49.896;11.424;2023-05-16T15:27:31;4.10;;;2.80;;
12888;SDS011;56848;49.896;11.424;2023-05-16T15:29:57;6.53;;;3.30;;
12888;SDS011;56848;49.896;11.424;2023-05-16T15:32:23;5.80;;;2.13;;
12888;SDS011;56848;49.896;11.424;2023-05-16T15:34:50;4.90;;;2.97;;
12888;SDS011;56848;49.896;11.424;2023-05-16T15:37:16;5.93;;;2.73;;
12888;SDS011;56848;49.896;11.424;2023-05-16T15:39:42;2.40;;;2.20;;
12888;SDS011;56848;49.896;11.424;2023-05-16T15:42:08;5.43;;;2.80;;
12888;SDS011;56848;49.896;11.424;2023-05-16T15:44:34;6.23;;;2.30;;
12888;SDS011;56848;49.896;11.424;2023-05-16T15:47:00;3.43;;;2.00;;
12888;SDS011;56848;49.896;11.424;2023-05-16T15:49:26;3.37;;;2.27;;
12888;SDS011;56848;49.896;11.424;2023-05-16T15:51:52;2.43;;;2.23;;
12888;SDS011;56848;49.896;11.424;2023-05-16T15:54:18;2.80;;;2.03;;
12888;SDS011;56848;49.896;11.424;2023-05-16T15:56:44;1.83;;;1.73;;
12888;SDS011;56848;49.896;11.424;2023-05-16T15:59:10;3.40;;;1.93;;
12888;SDS011;56848;49.896;11.424;2023-05-16T16:01:36;2.57;;;2.00;;
12888;SDS011;56848;49.896;11.424;2023-05-16T16:04:02;4.43;;;2.10;;
12888;SDS011;56848;49.896;11.424;2023-05-16T16:06:28;3.07;;;1.80;;
12888;SDS011;56848;49.896;11.424;2023-05-16T16:08:55;3.27;;;2.13;;
12888;SDS011;56848;49.896;11.424;2023-05-16T16:11:21;2.60;;;1.77;;
12888;SDS011;56848;49.896;11.424;2023-05-16T16:13:47;4.50;;;2.17;;
12888;SDS011;56848;49.896;11.424;2023-05-16T16:16:13;2.23;;;1.83;;
12888;SDS011;56848;49.896;11.424;2023-05-16T16:18:40;4.57;;;2.30;;
12888;SDS011;56848;49.896;11.424;2023-05-16T16:21:07;1.67;;;1.50;;
12888;SDS011;56848;49.896;11.424;2023-05-16T16:23:34;5.20;;;2.10;;
12888;SDS011;56848;49.896;11.424;2023-05-16T16:26:00;4.40;;;1.83;;
12888;SDS011;56848;49.896;11.424;2023-05-16T16:28:26;2.10;;;1.90;;
12888;SDS011;56848;49.896;11.424;2023-05-16T16:30:52;2.50;;;1.70;;
12888;SDS011;56848;49.896;11.424;2023-05-16T16:33:18;3.10;;;1.83;;
12888;SDS011;56848;49.896;11.424;2023-05-16T16:35:44;3.90;;;1.93;;
12888;SDS011;56848;49.896;11.424;2023-05-16T16:38:10;3.27;;;2.03;;
12888;SDS011;56848;49.896;11.424;2023-05-16T16:40:36;4.00;;;2.07;;
12888;SDS011;56848;49.896;11.424;2023-05-16T16:43:02;7.23;;;2.10;;
12888;SDS011;56848;49.896;11.424;2023-05-16T16:45:30;5.90;;;2.03;;
12888;SDS011;56848;49.896;11.424;2023-05-16T16:47:56;6.90;;;2.10;;
12888;SDS011;56848;49.896;11.424;2023-05-16T16:50:22;3.50;;;1.80;;
12888;SDS011;56848;49.896;11.424;2023-05-16T16:52:48;5.47;;;1.77;;
12888;SDS011;56848;49.896;11.424;2023-05-16T16:55:14;2.90;;;2.17;;
12888;SDS011;56848;49.896;11.424;2023-05-16T16:57:41;3.10;;;1.97;;
12888;SDS011;56848;49.896;11.424;2023-05-16T17:00:07;4.43;;;2.17;;
12888;SDS011;56848;49.896;11.424;2023-05-16T17:02:35;4.80;;;2.03;;
12888;SDS011;56848;49.896;11.424;2023-05-16T17:05:01;4.50;;;1.97;;
12888;SDS011;56848;49.896;11.424;2023-05-16T17:07:28;4.63;;;1.90;;
12888;SDS011;56848;49.896;11.424;2023-05-16T17:09:54;6.00;;;2.50;;
12888;SDS011;56848;49.896;11.424;2023-05-16T17:12:21;8.60;;;2.63;;
12888;SDS011;56848;49.896;11.424;2023-05-16T17:14:48;4.70;;;1.50;;
12888;SDS011;56848;49.896;11.424;2023-05-16T17:17:15;5.00;;;1.50;;
12888;SDS011;56848;49.896;11.424;2023-05-16T17:19:41;15.23;;;1.93;;
12888;SDS011;56848;49.896;11.424;2023-05-16T17:22:08;10.73;;;2.10;;
12888;SDS011;56848;49.896;11.424;2023-05-16T17:24:34;3.20;;;1.77;;
12888;SDS011;56848;49.896;11.424;2023-05-16T17:27:00;6.20;;;2.00;;
12888;SDS011;56848;49.896;11.424;2023-05-16T17:29:26;5.17;;;1.80;;
12888;SDS011;56848;49.896;11.424;2023-05-16T17:31:52;4.53;;;1.87;;
12888;SDS011;56848;49.896;11.424;2023-05-16T17:34:18;6.30;;;2.13;;
12888;SDS011;56848;49.896;11.424;2023-05-16T17:36:44;7.40;;;2.23;;
12888;SDS011;56848;49.896;11.424;2023-05-16T17:39:10;8.83;;;1.80;;
12888;SDS011;56848;49.896;11.424;2023-05-16T17:41:36;3.40;;;1.60;;
12888;SDS011;56848;49.896;11.424;2023-05-16T17:44:03;16.93;;;2.10;;
12888;SDS011;56848;49.896;11.424;2023-05-16T17:46:31;3.70;;;1.70;;
12888;SDS011;56848;49.896;11.424;2023-05-16T17:48:57;5.43;;;1.60;;
12888;SDS011;56848;49.896;11.424;2023-05-16T17:51:23;6.93;;;1.57;;
12888;SDS011;56848;49.896;11.424;2023-05-16T17:53:49;4.97;;;2.20;;
12888;SDS011;56848;49.896;11.424;2023-05-16T17:56:16;11.93;;;2.10;;
12888;SDS011;56848;49.896;11.424;2023-05-16T17:58:44;7.40;;;1.97;;
12888;SDS011;56848;49.896;11.424;2023-05-16T18:01:10;10.17;;;2.10;;
12888;SDS011;56848;49.896;11.424;2023-05-16T18:03:37;5.23;;;2.10;;
12888;SDS011;56848;49.896;11.424;2023-05-16T18:06:05;6.70;;;1.77;;
12888;SDS011;56848;49.896;11.424;2023-05-16T18:08:31;6.80;;;2.00;;
12888;SDS011;56848;49.896;11.424;2023-05-16T18:10:57;8.93;;;1.87;;
12888;SDS011;56848;49.896;11.424;2023-05-16T18:13:22;4.30;;;1.97;;
12888;SDS011;56848;49.896;11.424;2023-05-16T18:15:49;4.73;;;2.07;;
12888;SDS011;56848;49.896;11.424;2023-05-16T18:18:18;9.43;;;2.10;;
12888;SDS011;56848;49.896;11.424;2023-05-16T18:20:44;5.37;;;2.30;;
12888;SDS011;56848;49.896;11.424;2023-05-16T18:23:11;11.87;;;2.53;;
12888;SDS011;56848;49.896;11.424;2023-05-16T18:25:37;5.87;;;2.07;;
12888;SDS011;56848;49.896;11.424;2023-05-16T18:28:03;3.53;;;2.03;;
12888;SDS011;56848;49.896;11.424;2023-05-16T18:30:29;10.20;;;2.03;;
12888;SDS011;56848;49.896;11.424;2023-05-16T18:32:55;4.77;;;2.10;;
12888;SDS011;56848;49.896;11.424;2023-05-16T18:35:21;6.77;;;2.03;;